createdAt,value
2022-12-12T00:00:25.077Z,100669.78
2022-12-12T00:02:51.946Z,100656.13
2022-12-12T00:05:19.201Z,100655.94
2022-12-12T00:07:45.987Z,100666.34
2022-12-12T00:10:13.406Z,100662.00
2022-12-12T00:12:40.755Z,100668.50
2022-12-12T00:15:08.394Z,100665.53
2022-12-12T00:17:35.088Z,100662.84
2022-12-12T00:20:01.996Z,100676.06
2022-12-12T00:22:28.658Z,100673.25
2022-12-12T00:24:55.801Z,100675.19
2022-12-12T00:27:22.662Z,100666.91
2022-12-12T00:29:53.649Z,100681.34
2022-12-12T00:32:20.961Z,100674.69
2022-12-12T00:34:47.860Z,100671.25
2022-12-12T00:37:14.772Z,100681.13
2022-12-12T00:39:42.670Z,100673.09
2022-12-12T00:42:09.859Z,100675.28
2022-12-12T00:44:36.922Z,100672.06
2022-12-12T00:47:03.921Z,100671.25
2022-12-12T00:49:30.887Z,100673.16
2022-12-12T00:51:57.631Z,100674.22
2022-12-12T00:54:24.864Z,100672.81
2022-12-12T00:56:52.108Z,100676.34
2022-12-12T00:59:19.852Z,100678.25
2022-12-12T01:01:47.606Z,100673.66
2022-12-12T01:04:15.113Z,100686.00
2022-12-12T01:06:41.997Z,100688.59
2022-12-12T01:09:08.698Z,100692.00
2022-12-12T01:11:35.508Z,100690.88
2022-12-12T01:14:02.954Z,100683.44
2022-12-12T01:16:30.241Z,100684.28
2022-12-12T01:18:57.049Z,100694.94
2022-12-12T01:21:24.400Z,100701.16
2022-12-12T01:23:51.174Z,100699.72
2022-12-12T01:26:20.866Z,100703.50
2022-12-12T01:28:48.313Z,100697.91
2022-12-12T01:31:15.477Z,100701.88
2022-12-12T01:33:46.376Z,100708.81
2022-12-12T01:36:17.728Z,100712.25
2022-12-12T01:38:48.369Z,100709.75
2022-12-12T01:41:15.993Z,100717.88
2022-12-12T01:43:42.965Z,100720.53
2022-12-12T01:46:30.907Z,100714.66
2022-12-12T01:49:05.405Z,100718.56
2022-12-12T01:51:32.577Z,100727.09
2022-12-12T01:54:10.654Z,100724.38
2022-12-12T01:56:40.283Z,100720.31
2022-12-12T01:59:09.438Z,100718.09
2022-12-12T02:01:36.370Z,100719.19
2022-12-12T02:04:03.322Z,100728.09
2022-12-12T02:06:30.672Z,100723.00
2022-12-12T02:09:01.572Z,100722.41
2022-12-12T02:11:42.793Z,100723.53
2022-12-12T02:14:09.832Z,100726.75
2022-12-12T02:16:50.496Z,100710.69
2022-12-12T02:19:36.549Z,100725.81
2022-12-12T02:22:25.567Z,100720.47
2022-12-12T02:25:49.241Z,100728.25
2022-12-12T02:28:43.898Z,100731.16
2022-12-12T02:31:49.128Z,100732.25
2022-12-12T02:34:27.177Z,100724.31
2022-12-12T02:37:27.294Z,100714.66
2022-12-12T02:39:54.113Z,100719.97
2022-12-12T02:42:32.230Z,100726.31
2022-12-12T02:44:59.199Z,100725.66
2022-12-12T02:47:32.027Z,100725.41
2022-12-12T02:50:09.281Z,100722.25
2022-12-12T02:52:36.731Z,100719.75
2022-12-12T02:55:05.250Z,100719.50
2022-12-12T02:57:33.305Z,100715.72
2022-12-12T03:00:12.058Z,100710.81
2022-12-12T03:03:21.161Z,100712.88
2022-12-12T03:06:41.237Z,100724.53
2022-12-12T03:09:26.436Z,100723.41
2022-12-12T03:12:05.099Z,100728.03
2022-12-12T03:14:37.824Z,100723.03
2022-12-12T03:17:16.164Z,100730.94
2022-12-12T03:19:46.786Z,100733.97
2022-12-12T03:22:34.911Z,100732.94
2022-12-12T03:25:08.214Z,100738.63
2022-12-12T03:27:39.506Z,100737.34
2022-12-12T03:30:10.407Z,100737.00
2022-12-12T03:32:49.369Z,100734.91
2022-12-12T03:35:20.634Z,100732.66
2022-12-12T03:37:58.840Z,100725.50
2022-12-12T03:40:30.863Z,100733.91
2022-12-12T03:42:57.903Z,100732.78
2022-12-12T03:45:32.948Z,100730.72
2022-12-12T03:48:09.752Z,100743.50
2022-12-12T03:50:51.056Z,100740.75
2022-12-12T03:53:24.085Z,100743.16
2022-12-12T03:55:57.381Z,100740.97
2022-12-12T03:58:28.187Z,100741.94
2022-12-12T04:00:57.247Z,100743.41
2022-12-12T04:03:30.155Z,100750.50
2022-12-12T04:06:23.023Z,100748.94
2022-12-12T04:09:08.811Z,100746.66
2022-12-12T04:12:00.928Z,100750.97
2022-12-12T04:14:47.252Z,100749.94
2022-12-12T04:17:21.400Z,100755.22
2022-12-12T04:20:14.178Z,100755.13
2022-12-12T04:23:05.497Z,100754.16
2022-12-12T04:26:05.646Z,100754.69
2022-12-12T04:28:32.983Z,100750.56
2022-12-12T04:31:02.305Z,100754.19
2022-12-12T04:33:36.769Z,100759.13
2022-12-12T04:36:05.104Z,100752.66
2022-12-12T04:38:34.769Z,100757.00
2022-12-12T04:41:04.959Z,100760.63
2022-12-12T04:43:33.794Z,100764.84
2022-12-12T04:46:04.894Z,100760.81
2022-12-12T04:48:38.550Z,100764.59
2022-12-12T04:51:08.929Z,100769.97
2022-12-12T04:53:43.217Z,100770.75
2022-12-12T04:56:12.302Z,100765.75
2022-12-12T04:58:39.674Z,100764.38
2022-12-12T05:01:15.268Z,100761.09
2022-12-12T05:03:48.822Z,100760.97
2022-12-12T05:06:19.303Z,100759.78
2022-12-12T05:08:52.202Z,100759.38
2022-12-12T05:11:21.424Z,100758.84
2022-12-12T05:13:49.989Z,100758.84
2022-12-12T05:16:20.883Z,100756.69
2022-12-12T05:18:47.642Z,100759.34
2022-12-12T05:21:15.195Z,100758.91
2022-12-12T05:23:42.044Z,100766.25
2022-12-12T05:26:19.635Z,100765.31
2022-12-12T05:28:46.433Z,100764.06
2022-12-12T05:31:13.216Z,100758.88
2022-12-12T05:33:40.406Z,100774.22
2022-12-12T05:36:07.695Z,100765.88
2022-12-12T05:38:34.577Z,100772.50
2022-12-12T05:41:01.366Z,100772.19
2022-12-12T05:43:28.094Z,100781.91
2022-12-12T05:45:55.176Z,100777.31
2022-12-12T05:48:24.541Z,100787.63
2022-12-12T05:50:53.447Z,100773.91
2022-12-12T05:53:20.562Z,100777.25
2022-12-12T05:55:50.821Z,100791.28
2022-12-12T05:58:18.260Z,100789.84
2022-12-12T06:00:47.782Z,100781.22
2022-12-12T06:03:15.119Z,100791.66
2022-12-12T06:05:42.589Z,100795.75
2022-12-12T06:08:09.549Z,100803.34
2022-12-12T06:10:39.154Z,100792.41
2022-12-12T06:13:06.073Z,100791.56
2022-12-12T06:15:32.825Z,100795.09
2022-12-12T06:17:59.696Z,100791.47
2022-12-12T06:20:30.547Z,100791.13
2022-12-12T06:22:58.079Z,100788.44
2022-12-12T06:25:25.158Z,100794.81
2022-12-12T06:27:54.915Z,100797.69
2022-12-12T06:30:21.818Z,100793.09
2022-12-12T06:32:49.356Z,100796.38
2022-12-12T06:35:26.316Z,100797.03
2022-12-12T06:37:53.163Z,100792.09
2022-12-12T06:40:20.012Z,100799.47
2022-12-12T06:42:48.752Z,100799.88
2022-12-12T06:45:16.821Z,100811.19
2022-12-12T06:47:43.868Z,100812.53
2022-12-12T06:50:11.405Z,100817.50
2022-12-12T06:52:38.196Z,100816.97
2022-12-12T06:55:05.271Z,100824.78
2022-12-12T06:57:32.329Z,100815.06
2022-12-12T06:59:59.065Z,100818.19
2022-12-12T07:02:29.938Z,100816.38
2022-12-12T07:04:58.263Z,100821.72
2022-12-12T07:07:25.158Z,100823.50
2022-12-12T07:09:51.976Z,100827.75
2022-12-12T07:12:20.108Z,100828.34
2022-12-12T07:14:46.893Z,100829.88
2022-12-12T07:17:13.629Z,100828.78
2022-12-12T07:19:40.431Z,100835.94
2022-12-12T07:22:10.089Z,100837.13
2022-12-12T07:24:40.072Z,100827.03
2022-12-12T07:27:07.337Z,100829.63
2022-12-12T07:29:34.407Z,100834.94
2022-12-12T07:32:01.203Z,100844.59
2022-12-12T07:34:31.275Z,100845.25
2022-12-12T07:37:02.880Z,100849.91
2022-12-12T07:39:31.468Z,100850.53
2022-12-12T07:41:58.362Z,100847.31
2022-12-12T07:44:25.778Z,100842.22
2022-12-12T07:46:52.714Z,100852.75
2022-12-12T07:49:19.860Z,100861.13
2022-12-12T07:51:49.194Z,100858.41
2022-12-12T07:54:16.821Z,100866.19
2022-12-12T07:56:43.992Z,100865.38
2022-12-12T07:59:13.050Z,100859.91
2022-12-12T08:01:40.080Z,100874.88
2022-12-12T08:04:07.091Z,100874.84
2022-12-12T08:06:34.084Z,100874.53
2022-12-12T08:09:00.845Z,100891.91
2022-12-12T08:11:28.043Z,100894.84
2022-12-12T08:13:54.862Z,100890.72
2022-12-12T08:16:26.404Z,100894.00
2022-12-12T08:18:57.389Z,100891.94
2022-12-12T08:21:27.586Z,100889.69
2022-12-12T08:23:59.526Z,100901.56
2022-12-12T08:26:27.239Z,100895.28
2022-12-12T08:28:54.845Z,100898.09
2022-12-12T08:31:22.591Z,100880.06
2022-12-12T08:33:55.322Z,100901.25
2022-12-12T08:36:31.506Z,100901.06
2022-12-12T08:39:07.162Z,100881.75
2022-12-12T08:41:36.033Z,100905.34
2022-12-12T08:44:03.262Z,100888.84
2022-12-12T08:46:30.483Z,100887.97
2022-12-12T08:48:57.317Z,100886.63
2022-12-12T08:51:24.414Z,100882.38
2022-12-12T08:53:53.155Z,100896.03
2022-12-12T08:56:23.484Z,100877.81
2022-12-12T08:58:50.600Z,100885.03
2022-12-12T09:01:19.893Z,100884.56
2022-12-12T09:03:48.036Z,100875.16
2022-12-12T09:06:15.456Z,100874.09
2022-12-12T09:08:42.575Z,100879.78
2022-12-12T09:11:10.613Z,100881.56
2022-12-12T09:16:42.667Z,100867.47
2022-12-12T09:19:13.425Z,100878.63
2022-12-12T09:21:43.014Z,100880.13
2022-12-12T09:24:10.297Z,100885.91
2022-12-12T09:26:37.783Z,100880.66
2022-12-12T09:29:06.352Z,100893.94
2022-12-12T09:31:33.594Z,100885.13
2022-12-12T09:34:00.662Z,100887.78
2022-12-12T09:36:27.510Z,100883.84
2022-12-12T09:38:54.656Z,100882.88
2022-12-12T09:41:27.259Z,100885.28
2022-12-12T09:44:03.513Z,100892.59
2022-12-12T09:46:35.852Z,100886.00
2022-12-12T09:49:12.729Z,100882.59
2022-12-12T09:54:31.126Z,100889.09
2022-12-12T09:57:13.023Z,100886.00
2022-12-12T09:59:58.632Z,100888.09
2022-12-12T10:02:47.395Z,100881.44
2022-12-12T10:05:23.384Z,100893.47
2022-12-12T10:08:02.170Z,100891.56
2022-12-12T10:10:33.224Z,100896.78
2022-12-12T10:13:01.806Z,100892.34
2022-12-12T10:15:36.558Z,100894.31
2022-12-12T10:18:08.745Z,100887.78
2022-12-12T10:20:44.954Z,100887.69
2022-12-12T10:23:31.957Z,100889.06
2022-12-12T10:26:16.395Z,100887.94
2022-12-12T10:28:43.260Z,100879.31
2022-12-12T10:31:44.489Z,100887.06
2022-12-12T10:34:47.652Z,100878.84
2022-12-12T10:37:20.773Z,100880.78
2022-12-12T10:39:59.662Z,100879.94
2022-12-12T10:42:32.464Z,100880.13
2022-12-12T10:45:17.602Z,100880.28
2022-12-12T10:47:45.130Z,100875.75
2022-12-12T10:50:13.599Z,100875.56
2022-12-12T10:52:40.820Z,100860.84
2022-12-12T10:55:50.346Z,100872.13
2022-12-12T10:58:17.783Z,100869.03
2022-12-12T11:00:46.698Z,100871.88
2022-12-12T11:03:21.323Z,100869.81
2022-12-12T11:05:48.649Z,100869.81
2022-12-12T11:08:43.505Z,100873.69
2022-12-12T11:11:10.363Z,100879.78
2022-12-12T11:13:53.989Z,100865.63
2022-12-12T11:16:29.565Z,100865.09
2022-12-12T11:19:05.876Z,100869.47
2022-12-12T11:21:35.736Z,100859.63
2022-12-12T11:24:13.971Z,100859.97
2022-12-12T11:26:46.981Z,100856.19
2022-12-12T11:29:30.868Z,100856.97
2022-12-12T11:31:58.816Z,100850.38
2022-12-12T11:34:27.425Z,100848.88
2022-12-12T11:36:54.599Z,100854.59
2022-12-12T11:39:24.432Z,100851.16
2022-12-12T11:42:05.345Z,100849.81
2022-12-12T11:44:46.654Z,100839.91
2022-12-12T11:47:26.838Z,100844.75
2022-12-12T11:49:58.972Z,100841.69
2022-12-12T11:52:31.289Z,100844.13
2022-12-12T11:54:59.563Z,100827.78
2022-12-12T11:57:38.410Z,100829.38
2022-12-12T12:00:06.349Z,100836.00
2022-12-12T12:02:49.439Z,100830.53
2022-12-12T12:05:25.676Z,100827.06
2022-12-12T12:08:08.935Z,100823.56
2022-12-12T12:11:06.987Z,100821.16
2022-12-12T12:13:46.236Z,100815.84
2022-12-12T12:16:25.138Z,100819.84
2022-12-12T12:19:19.449Z,100824.41
2022-12-12T12:22:05.275Z,100823.84
2022-12-12T12:24:32.430Z,100823.06
2022-12-12T12:27:28.988Z,100811.78
2022-12-12T12:30:17.478Z,100816.63
2022-12-12T12:32:50.792Z,100809.94
2022-12-12T12:35:34.335Z,100804.31
2022-12-12T12:38:43.600Z,100794.94
2022-12-12T12:41:27.183Z,100800.81
2022-12-12T12:44:02.438Z,100788.00
2022-12-12T12:46:41.880Z,100797.28
2022-12-12T12:49:15.969Z,100793.03
2022-12-12T12:51:50.882Z,100775.28
2022-12-12T12:54:20.618Z,100792.16
2022-12-12T12:56:51.547Z,100791.69
2022-12-12T12:59:22.360Z,100789.53
2022-12-12T13:01:51.230Z,100793.06
2022-12-12T13:04:23.273Z,100798.94
2022-12-12T13:06:57.521Z,100800.81
2022-12-12T13:09:28.932Z,100795.94
2022-12-12T13:12:07.653Z,100784.72
2022-12-12T13:14:40.191Z,100798.88
2022-12-12T13:17:14.148Z,100791.38
2022-12-12T13:19:43.475Z,100794.91
2022-12-12T13:22:46.904Z,100791.03
2022-12-12T13:25:23.059Z,100794.66
2022-12-12T13:27:53.025Z,100782.88
2022-12-12T13:30:22.468Z,100789.19
2022-12-12T13:32:52.112Z,100781.59
2022-12-12T13:35:44.460Z,100783.34
2022-12-12T13:38:32.692Z,100777.94
2022-12-12T13:41:06.638Z,100776.41
2022-12-12T13:43:33.527Z,100787.66
2022-12-12T13:46:29.223Z,100783.75
2022-12-12T13:49:02.820Z,100785.25
2022-12-12T13:51:31.067Z,100787.16
2022-12-12T13:54:21.166Z,100780.44
2022-12-12T13:57:09.071Z,100781.09
2022-12-12T13:59:54.289Z,100781.25
2022-12-12T14:02:36.110Z,100781.25
2022-12-12T14:05:10.727Z,100774.81
2022-12-12T14:07:38.740Z,100777.06
2022-12-12T14:10:24.291Z,100780.25
2022-12-12T14:12:51.347Z,100778.25
2022-12-12T14:15:28.577Z,100777.00
2022-12-12T14:18:00.550Z,100762.75
2022-12-12T14:20:34.423Z,100776.28
2022-12-12T14:23:42.408Z,100771.88
2022-12-12T14:26:27.923Z,100775.63
2022-12-12T14:29:16.724Z,100781.03
2022-12-12T14:32:03.097Z,100774.34
2022-12-12T14:34:36.020Z,100778.03
2022-12-12T14:37:25.770Z,100790.53
2022-12-12T14:39:59.946Z,100786.38
2022-12-12T14:43:18.714Z,100791.38
2022-12-12T14:45:32.289Z,100793.69
2022-12-12T14:48:20.960Z,100791.34
2022-12-12T14:51:11.893Z,100797.25
2022-12-12T14:53:38.708Z,100797.09
2022-12-12T14:56:30.280Z,100797.16
2022-12-12T14:59:03.064Z,100799.69
2022-12-12T15:01:40.436Z,100798.84
2022-12-12T15:04:30.651Z,100796.75
2022-12-12T15:06:58.996Z,100789.84
2022-12-12T15:09:39.273Z,100799.13
2022-12-12T15:12:16.707Z,100803.97
2022-12-12T15:14:47.097Z,100796.38
2022-12-12T15:17:23.676Z,100793.34
2022-12-12T15:19:56.186Z,100790.53
2022-12-12T15:22:25.902Z,100795.03
2022-12-12T15:24:54.138Z,100801.66
2022-12-12T15:27:46.155Z,100799.97
2022-12-12T15:30:45.646Z,100806.97
2022-12-12T15:33:21.761Z,100806.72
2022-12-12T15:36:02.203Z,100805.63
2022-12-12T15:38:32.554Z,100813.66
2022-12-12T15:41:01.298Z,100820.13
2022-12-12T15:43:30.442Z,100826.28
2022-12-12T15:45:59.038Z,100829.56
2022-12-12T15:48:26.425Z,100823.44
2022-12-12T15:50:59.504Z,100821.56
2022-12-12T15:53:33.108Z,100821.06
2022-12-12T15:56:18.552Z,100817.31
2022-12-12T15:59:18.864Z,100819.69
2022-12-12T16:01:45.663Z,100824.25
2022-12-12T16:04:12.422Z,100827.19
2022-12-12T16:06:42.075Z,100826.13
2022-12-12T16:09:24.936Z,100821.88
2022-12-12T16:11:53.517Z,100826.16
2022-12-12T16:14:41.764Z,100818.38
2022-12-12T16:17:13.961Z,100823.22
2022-12-12T16:19:43.258Z,100825.91
2022-12-12T16:22:35.927Z,100813.28
2022-12-12T16:25:12.021Z,100820.56
2022-12-12T16:27:39.381Z,100809.56
2022-12-12T16:30:12.617Z,100808.47
2022-12-12T16:32:42.764Z,100805.59
2022-12-12T16:35:20.937Z,100804.81
2022-12-12T16:37:53.890Z,100813.28
2022-12-12T16:41:06.964Z,100817.09
2022-12-12T16:43:41.993Z,100804.50
2022-12-12T16:46:21.313Z,100797.28
2022-12-12T16:48:49.643Z,100803.13
2022-12-12T16:51:29.570Z,100810.44
2022-12-12T16:53:56.846Z,100818.22
2022-12-12T16:56:24.827Z,100817.38
2022-12-12T16:58:53.415Z,100812.28
2022-12-12T17:01:21.218Z,100802.91
2022-12-12T17:07:24.774Z,100815.75
2022-12-12T17:09:52.869Z,100822.47
2022-12-12T17:16:38.226Z,100803.50
2022-12-12T17:19:05.268Z,100804.28
2022-12-12T17:21:32.115Z,100808.31
2022-12-12T17:24:01.828Z,100809.91
2022-12-12T17:30:46.607Z,100813.13
2022-12-12T17:33:18.145Z,100800.50
2022-12-12T17:35:45.940Z,100797.06
2022-12-12T17:38:16.331Z,100807.25
2022-12-12T18:14:04.474Z,100805.38
2022-12-12T18:16:33.110Z,100801.38
2022-12-12T18:19:00.488Z,100808.88
2022-12-12T18:24:21.417Z,100798.44
2022-12-12T18:26:58.412Z,100785.81
2022-12-12T18:29:26.441Z,100794.69
2022-12-12T18:31:56.027Z,100804.06
2022-12-12T18:34:23.246Z,100800.59
2022-12-12T18:36:54.324Z,100801.91
2022-12-12T18:39:22.369Z,100790.38
2022-12-12T18:41:49.509Z,100798.97
2022-12-12T18:44:22.755Z,100799.50
2022-12-12T18:46:55.159Z,100796.00
2022-12-12T18:49:24.972Z,100802.19
2022-12-12T18:51:52.061Z,100800.31
2022-12-12T18:57:05.378Z,100807.78
2022-12-12T18:59:32.218Z,100800.84
2022-12-12T19:02:03.525Z,100789.84
2022-12-12T19:04:33.677Z,100804.06
2022-12-12T19:07:00.604Z,100798.94
2022-12-12T19:09:27.657Z,100799.78
2022-12-12T19:12:01.640Z,100800.03
2022-12-12T19:14:40.480Z,100802.97
2022-12-12T19:17:18.350Z,100796.28
2022-12-12T19:19:46.864Z,100803.78
2022-12-12T19:22:39.885Z,100808.59
2022-12-12T19:25:01.450Z,100807.53
2022-12-12T19:27:31.476Z,100806.19
2022-12-12T19:29:58.423Z,100807.81
2022-12-12T19:32:25.362Z,100800.56
2022-12-12T19:34:52.545Z,100784.78
2022-12-12T19:37:21.721Z,100802.16
2022-12-12T19:39:50.416Z,100797.09
2022-12-12T19:42:17.311Z,100795.72
2022-12-12T19:44:44.291Z,100792.78
2022-12-12T19:47:11.359Z,100799.50
2022-12-12T19:49:38.703Z,100808.88
2022-12-12T19:52:10.562Z,100790.66
2022-12-12T19:54:41.270Z,100801.91
2022-12-12T19:57:08.238Z,100809.13
2022-12-12T19:59:35.308Z,100807.78
2022-12-12T20:02:02.697Z,100809.13
2022-12-12T20:04:30.461Z,100800.28
2022-12-12T20:07:09.134Z,100807.53
2022-12-12T20:09:36.416Z,100801.13
2022-12-12T20:12:03.647Z,100793.88
2022-12-12T20:14:39.289Z,100804.84
2022-12-12T20:17:06.476Z,100802.72
2022-12-12T20:19:49.316Z,100801.91
2022-12-12T20:22:16.545Z,100796.53
2022-12-12T20:24:45.273Z,100798.13
2022-12-12T20:27:12.524Z,100808.84
2022-12-12T20:29:39.567Z,100809.38
2022-12-12T20:32:06.364Z,100810.47
2022-12-12T20:34:33.173Z,100807.78
2022-12-12T20:37:00.143Z,100805.91
2022-12-12T20:39:35.005Z,100813.94
2022-12-12T20:42:02.534Z,100812.59
2022-12-12T20:44:30.084Z,100814.22
2022-12-12T20:46:58.944Z,100823.00
2022-12-12T20:49:29.801Z,100817.41
2022-12-12T20:51:58.300Z,100808.56
2022-12-12T20:54:27.842Z,100820.91
2022-12-12T20:56:55.135Z,100821.63
2022-12-12T20:59:21.824Z,100822.75
2022-12-12T21:01:48.801Z,100819.28
2022-12-12T21:04:16.069Z,100820.88
2022-12-12T21:06:51.656Z,100839.09
2022-12-12T21:09:24.258Z,100828.59
2022-12-12T21:11:52.901Z,100821.88
2022-12-12T21:14:20.372Z,100831.28
2022-12-12T21:16:47.461Z,100826.94
2022-12-12T21:19:14.590Z,100818.06
2022-12-12T21:21:42.851Z,100830.22
2022-12-12T21:24:15.429Z,100836.38
2022-12-12T21:26:45.533Z,100828.34
2022-12-12T21:29:12.671Z,100828.56
2022-12-12T21:31:48.265Z,100828.84
2022-12-12T21:34:17.047Z,100825.66
2022-12-12T21:36:44.647Z,100826.72
2022-12-12T21:39:12.352Z,100822.63
2022-12-12T21:41:41.584Z,100819.97
2022-12-12T21:44:12.363Z,100821.81
2022-12-12T21:46:42.137Z,100822.97
2022-12-12T21:49:28.314Z,100820.00
2022-12-12T21:52:03.627Z,100813.03
2022-12-12T21:54:31.204Z,100810.63
2022-12-12T21:57:12.976Z,100821.47
2022-12-12T21:59:40.289Z,100811.06
2022-12-12T22:02:13.759Z,100823.94
2022-12-12T22:04:47.183Z,100802.84
2022-12-12T22:07:18.118Z,100814.06
2022-12-12T22:10:10.417Z,100821.06
2022-12-12T22:12:40.688Z,100818.91
2022-12-12T22:15:08.881Z,100815.69
2022-12-12T22:17:35.715Z,100826.38
2022-12-12T22:20:06.980Z,100816.75
2022-12-12T22:22:33.901Z,100815.69
2022-12-12T22:25:00.840Z,100818.09
2022-12-12T22:27:30.070Z,100819.69
2022-12-12T22:29:57.292Z,100820.53
2022-12-12T22:32:24.459Z,100817.06
2022-12-12T22:34:51.461Z,100805.81
2022-12-12T22:37:18.190Z,100822.41
2022-12-12T22:39:45.272Z,100823.47
2022-12-12T22:42:11.997Z,100812.53
2022-12-12T22:44:38.855Z,100806.88
2022-12-12T22:47:05.767Z,100811.16
2022-12-12T22:49:35.987Z,100811.41
2022-12-12T22:52:02.808Z,100822.09
2022-12-12T22:54:29.590Z,100813.78
2022-12-12T22:56:56.910Z,100814.47
2022-12-12T22:59:23.941Z,100821.72
2022-12-12T23:01:51.151Z,100811.97
2022-12-12T23:04:18.545Z,100820.84
2022-12-12T23:06:45.695Z,100819.09
2022-12-12T23:09:22.726Z,100816.44
2022-12-12T23:11:49.855Z,100809.13
2022-12-12T23:14:19.736Z,100816.94
2022-12-12T23:16:46.931Z,100814.50
2022-12-12T23:19:16.188Z,100818.34
2022-12-12T23:21:43.187Z,100806.59
2022-12-12T23:24:13.521Z,100802.81
2022-12-12T23:26:40.413Z,100805.44
2022-12-12T23:29:09.332Z,100804.41
2022-12-12T23:31:38.966Z,100797.22
2022-12-12T23:34:14.607Z,100792.66
2022-12-12T23:36:43.931Z,100789.19
2022-12-12T23:39:13.992Z,100791.59
2022-12-12T23:41:41.317Z,100782.75
2022-12-12T23:44:08.296Z,100782.47
2022-12-12T23:46:36.465Z,100774.38
2022-12-12T23:49:05.767Z,100780.53
2022-12-12T23:51:35.056Z,100782.94
2022-12-12T23:54:04.466Z,100781.59
2022-12-12T23:56:40.826Z,100779.97
2022-12-12T23:59:11.711Z,100771.16
